Res Bairoa, Puerto Rico
Current Conditions -  °F | °C
As of 10:56 AM on Friday 24 Oct 2014 (Local Time) from TJSJ Reporting Station
Scattered Clouds Scattered Clouds  
Wind Chill: 90°   Ceiling: Unl
Heat Index: 101°   Visibility: 10mi
Dew Point: 76°   Wind: 9mph
Humidity: 63%   Direction: 140°SE
Pressure: 29.95"   Gusts: NA
Location:  18.2361°N, 66.0369°W
Report Text: TJSJ 241456Z 14008KT 090V180 10SM FEW035 SCT044 32/24 A2995 RMK AO2 SLP141 T03220244 50003
Loading
Personal Weather Stations






























Interactive Weather Map
Tropical Storm Tracking
New forecast layout! Learn more

10-Day Weather Forecast

Advertisements
Track Severe Weather on mobile